Time;durP1;ratioP1;P1;durP2;ratioP2;P2;SDS_P1;SDS_P2;PMS_P1;PMS_P2;Temp;Humidity;BMP_temperature;BMP_pressure;BME280_temperature;BME280_humidity;BME280_pressure;Samples;Min_cycle;Max_cycle;Signal;HPM_P1;HPM_P2
2022/07/11 00:01:46;;;;;;;;;;;17.50;99.90;;;;;;10517975;27;84982;-45
2022/07/11 00:06:46;;;;;;;;;;;17.40;99.90;;;;;;10495469;27;85897;-42
2022/07/11 00:11:47;;;;;;;;;;;17.40;99.90;;;;;;10495559;27;85377;-44
2022/07/11 00:16:49;;;;;;;;;;;17.40;99.90;;;;;;10523874;27;85786;-44
2022/07/11 00:21:50;;;;;;;;;;;17.40;99.90;;;;;;10537221;27;84995;-46
2022/07/11 00:26:51;;;;;;;;;;;17.30;99.90;;;;;;10536984;27;84106;-46
2022/07/11 00:31:51;;;;;;;;;;;17.40;99.90;;;;;;10494888;27;84284;-45
2022/07/11 00:36:52;;;;;;;;;;;17.40;99.90;;;;;;10493084;27;84999;-45
2022/07/11 00:41:52;;;;;;;;;;;17.40;99.90;;;;;;10503130;27;84035;-47
2022/07/11 00:46:53;;;;;;;;;;;17.40;99.90;;;;;;10536895;27;84791;-45
2022/07/11 00:51:54;;;;;;;;;;;17.40;99.90;;;;;;10536386;27;84933;-46
2022/07/11 00:56:55;;;;;;;;;;;17.30;99.90;;;;;;10515954;27;84693;-44
2022/07/11 01:01:55;;;;;;;;;;;17.30;99.90;;;;;;10493725;27;84257;-46
2022/07/11 01:06:56;;;;;;;;;;;17.40;99.90;;;;;;10494066;27;84102;-46
2022/07/11 01:11:57;;;;;;;;;;;17.40;99.90;;;;;;10532398;27;85362;-46
2022/07/11 01:16:58;;;;;;;;;;;17.40;99.90;;;;;;10531128;27;85862;-47
2022/07/11 01:22:02;;;;;;;;;;;17.30;99.90;;;;;;10492851;27;84825;-46
2022/07/11 01:27:03;;;;;;;;;;;17.30;99.90;;;;;;10492814;27;84082;-46
2022/07/11 01:32:04;;;;;;;;;;;17.20;99.90;;;;;;10507449;27;84017;-48
2022/07/11 01:37:04;;;;;;;;;;;17.30;99.90;;;;;;10535159;27;84825;-45
2022/07/11 01:42:05;;;;;;;;;;;17.30;99.90;;;;;;10537645;27;84968;-46
2022/07/11 01:47:06;;;;;;;;;;;17.30;99.90;;;;;;10516732;27;84774;-47
2022/07/11 01:52:06;;;;;;;;;;;17.30;99.90;;;;;;10498625;27;84373;-47
2022/07/11 01:57:09;;;;;;;;;;;17.30;99.90;;;;;;10500263;27;85129;-48
2022/07/11 02:02:10;;;;;;;;;;;17.20;99.90;;;;;;10536155;27;84715;-46
2022/07/11 02:07:11;;;;;;;;;;;17.30;99.90;;;;;;10543580;27;84917;-48
2022/07/11 02:12:11;;;;;;;;;;;17.30;99.90;;;;;;10538766;27;84078;-45
2022/07/11 02:17:12;;;;;;;;;;;17.20;99.90;;;;;;10501929;27;84971;-46
2022/07/11 02:22:15;;;;;;;;;;;17.20;99.90;;;;;;10500918;27;84082;-46
2022/07/11 02:27:15;;;;;;;;;;;17.10;99.90;;;;;;10518544;27;85836;-45
2022/07/11 02:32:16;;;;;;;;;;;17.10;99.90;;;;;;10542212;27;85192;-47
2022/07/11 02:37:16;;;;;;;;;;;17.00;99.90;;;;;;10542492;27;85194;-45
2022/07/11 02:42:18;;;;;;;;;;;17.00;99.90;;;;;;10511011;27;84879;-46
2022/07/11 02:47:18;;;;;;;;;;;17.00;99.90;;;;;;10497930;27;84126;-45
2022/07/11 02:52:19;;;;;;;;;;;16.80;99.90;;;;;;10496262;27;84754;-44
2022/07/11 02:57:20;;;;;;;;;;;16.80;99.90;;;;;;10498505;27;85071;-44
2022/07/11 03:02:20;;;;;;;;;;;16.80;99.90;;;;;;10498285;27;84275;-46
2022/07/11 03:07:21;;;;;;;;;;;16.70;99.90;;;;;;10498458;27;84037;-44
2022/07/11 03:12:22;;;;;;;;;;;16.70;99.90;;;;;;10497285;27;84887;-43
2022/07/11 03:17:22;;;;;;;;;;;16.60;99.90;;;;;;10497004;27;85217;-44
2022/07/11 03:22:23;;;;;;;;;;;16.50;99.90;;;;;;10527860;27;84184;-45
2022/07/11 03:27:24;;;;;;;;;;;16.50;99.90;;;;;;10537586;27;84087;-42
2022/07/11 03:32:25;;;;;;;;;;;16.50;99.90;;;;;;10483254;27;87093;-45
2022/07/11 03:37:25;;;;;;;;;;;16.50;99.90;;;;;;10496283;27;84884;-45
2022/07/11 03:42:26;;;;;;;;;;;16.60;99.90;;;;;;10495298;27;84930;-48
2022/07/11 03:47:27;;;;;;;;;;;16.60;99.90;;;;;;10496172;27;84008;-46
2022/07/11 03:52:27;;;;;;;;;;;16.60;99.90;;;;;;10495937;27;84940;-45
2022/07/11 03:57:28;;;;;;;;;;;16.70;99.90;;;;;;10494024;27;84930;-45
2022/07/11 04:02:28;;;;;;;;;;;16.70;99.90;;;;;;10495120;27;84340;-45
2022/07/11 04:07:29;;;;;;;;;;;16.70;99.90;;;;;;10489336;27;84229;-48
2022/07/11 04:12:30;;;;;;;;;;;16.70;99.90;;;;;;10494595;27;84738;-43
2022/07/11 04:17:30;;;;;;;;;;;16.60;99.90;;;;;;10512208;27;85041;-43
2022/07/11 04:22:31;;;;;;;;;;;16.70;99.90;;;;;;10515234;27;84805;-47
2022/07/11 04:27:31;;;;;;;;;;;16.60;99.90;;;;;;10514557;27;84192;-48
2022/07/11 04:32:32;;;;;;;;;;;16.60;99.90;;;;;;10513626;27;84090;-44
2022/07/11 04:37:32;;;;;;;;;;;16.70;99.90;;;;;;10512830;27;85887;-45
2022/07/11 04:42:33;;;;;;;;;;;16.70;99.90;;;;;;10513913;27;84936;-47
2022/07/11 04:47:33;;;;;;;;;;;16.80;99.90;;;;;;10514449;27;84076;-45
2022/07/11 04:52:34;;;;;;;;;;;16.90;99.90;;;;;;10428919;22;85401;-46
2022/07/11 04:57:35;;;;;;;;;;;16.90;99.90;;;;;;10366861;28;84014;-50
2022/07/11 05:02:35;;;;;;;;;;;16.80;99.90;;;;;;10352345;28;84762;-48
2022/07/11 05:07:36;;;;;;;;;;;16.80;99.90;;;;;;10346658;28;84264;-48
2022/07/11 05:12:36;;;;;;;;;;;16.80;99.90;;;;;;10344524;28;84189;-53
2022/07/11 05:17:37;;;;;;;;;;;16.90;99.90;;;;;;10345805;28;84940;-50
2022/07/11 05:22:38;;;;;;;;;;;16.80;99.90;;;;;;10356899;28;84247;-47
2022/07/11 05:27:38;;;;;;;;;;;16.80;99.90;;;;;;10352846;28;84968;-47
2022/07/11 05:32:39;;;;;;;;;;;16.80;99.90;;;;;;10390724;28;84132;-50
2022/07/11 05:37:39;;;;;;;;;;;16.80;99.90;;;;;;10364067;28;84358;-47
2022/07/11 05:42:40;;;;;;;;;;;16.90;99.90;;;;;;10333963;28;84986;-50
2022/07/11 05:47:41;;;;;;;;;;;16.90;99.90;;;;;;10329516;28;84221;-49
2022/07/11 05:52:42;;;;;;;;;;;17.00;99.90;;;;;;10343297;28;84982;-50
2022/07/11 05:57:42;;;;;;;;;;;17.10;99.90;;;;;;10342120;28;84930;-48
2022/07/11 06:02:44;;;;;;;;;;;17.10;99.90;;;;;;10343334;28;84989;-53
2022/07/11 06:13:04;;;;;;;;;;;17.30;1.00;;;;;;10331623;28;84238;-50
2022/07/11 06:18:05;;;;;;;;;;;17.30;7.20;;;;;;10346067;28;84200;-48
2022/07/11 06:23:06;;;;;;;;;;;17.40;1.00;;;;;;10322007;28;86901;-48
2022/07/11 06:28:06;;;;;;;;;;;17.50;1.00;;;;;;10318743;28;86026;-51
2022/07/11 06:33:07;;;;;;;;;;;17.50;1.00;;;;;;10340752;28;84076;-53
2022/07/11 06:38:08;;;;;;;;;;;17.50;1.00;;;;;;10340865;28;84225;-46
2022/07/11 06:43:09;;;;;;;;;;;17.60;1.00;;;;;;10346783;28;84526;-54
2022/07/11 06:48:10;;;;;;;;;;;17.60;1.00;;;;;;10363485;28;84199;-53
2022/07/11 06:53:11;;;;;;;;;;;17.60;1.00;;;;;;10372279;28;85021;-50
2022/07/11 06:58:12;;;;;;;;;;;17.40;97.00;;;;;;10349270;28;84840;-53
2022/07/11 07:03:12;;;;;;;;;;;17.30;99.90;;;;;;10372868;28;84154;-58
2022/07/11 07:08:13;;;;;;;;;;;17.10;99.90;;;;;;10375823;28;84998;-50
2022/07/11 07:13:13;;;;;;;;;;;17.20;99.90;;;;;;10359514;28;84910;-49
2022/07/11 07:18:14;;;;;;;;;;;17.10;99.90;;;;;;10352681;28;84965;-46
2022/07/11 07:23:14;;;;;;;;;;;17.10;99.90;;;;;;10349697;28;84028;-47
2022/07/11 07:28:15;;;;;;;;;;;17.10;99.90;;;;;;10348729;28;84315;-50
2022/07/11 07:33:15;;;;;;;;;;;17.10;99.90;;;;;;10331217;28;86059;-52
2022/07/11 07:38:16;;;;;;;;;;;17.30;99.90;;;;;;10350274;28;84980;-49
2022/07/11 07:43:16;;;;;;;;;;;17.30;99.90;;;;;;10330173;28;84087;-50
2022/07/11 07:48:17;;;;;;;;;;;17.20;99.90;;;;;;10331659;28;84966;-50
2022/07/11 07:53:18;;;;;;;;;;;17.10;99.90;;;;;;10327842;28;84813;-51
2022/07/11 07:58:18;;;;;;;;;;;17.30;99.90;;;;;;10343417;28;86020;-49
2022/07/11 08:03:19;;;;;;;;;;;17.50;99.90;;;;;;10375171;28;85141;-50
2022/07/11 08:08:19;;;;;;;;;;;17.70;99.90;;;;;;10369543;28;84953;-52
2022/07/11 08:13:20;;;;;;;;;;;17.80;99.90;;;;;;10369920;28;84815;-53
2022/07/11 08:18:20;;;;;;;;;;;17.90;99.90;;;;;;10370773;28;84188;-49
2022/07/11 08:23:21;;;;;;;;;;;18.00;4.00;;;;;;10369219;28;84073;-48
2022/07/11 08:28:22;;;;;;;;;;;18.20;24.80;;;;;;10370719;28;84085;-51
2022/07/11 08:33:22;;;;;;;;;;;18.20;14.50;;;;;;10353569;28;84501;-51
2022/07/11 08:38:23;;;;;;;;;;;18.50;1.00;;;;;;10370266;28;84871;-50
2022/07/11 08:43:28;;;;;;;;;;;18.40;1.00;;;;;;10355444;28;85912;-53
2022/07/11 08:48:29;;;;;;;;;;;18.30;14.00;;;;;;10372879;28;84530;-48
2022/07/11 08:53:30;;;;;;;;;;;18.10;16.40;;;;;;10368860;28;84093;-52
2022/07/11 08:58:31;;;;;;;;;;;18.10;83.20;;;;;;10369340;28;84105;-52
2022/07/11 09:03:33;;;;;;;;;;;18.20;7.20;;;;;;10368573;28;84367;-51
2022/07/11 09:08:33;;;;;;;;;;;18.10;1.00;;;;;;10368394;28;84821;-48
2022/07/11 09:13:34;;;;;;;;;;;18.10;1.00;;;;;;10367842;28;84004;-51
2022/07/11 09:18:36;;;;;;;;;;;18.30;1.00;;;;;;10368375;28;84046;-50
2022/07/11 09:29:12;;;;;;;;;;;18.40;1.00;;;;;;10367781;28;85078;-53
2022/07/11 09:34:17;;;;;;;;;;;18.30;1.00;;;;;;10368056;28;84173;-51
2022/07/11 09:39:20;;;;;;;;;;;18.20;99.90;;;;;;10367000;28;84933;-53
2022/07/11 09:44:24;;;;;;;;;;;18.10;99.90;;;;;;10349977;28;84824;-52
2022/07/11 09:49:32;;;;;;;;;;;18.20;99.90;;;;;;10367279;28;84935;-47
2022/07/11 09:54:32;;;;;;;;;;;18.30;1.00;;;;;;10366877;28;84953;-52
2022/07/11 09:59:33;;;;;;;;;;;18.60;1.00;;;;;;10349248;28;84575;-50
2022/07/11 10:04:33;;;;;;;;;;;19.20;1.00;;;;;;10372274;28;84979;-49
2022/07/11 10:09:35;;;;;;;;;;;19.60;1.00;;;;;;10374160;28;84136;-51
2022/07/11 10:14:37;;;;;;;;;;;19.40;1.00;;;;;;10374699;28;84469;-51
2022/07/11 10:19:41;;;;;;;;;;;19.20;1.00;;;;;;10373899;28;84116;-53
2022/07/11 10:24:52;;;;;;;;;;;19.10;1.00;;;;;;10374765;28;84871;-51
2022/07/11 10:29:53;;;;;;;;;;;19.00;1.00;;;;;;10373698;28;84938;-54
2022/07/11 10:35:07;;;;;;;;;;;19.10;1.00;;;;;;10374032;28;85010;-49
2022/07/11 10:40:08;;;;;;;;;;;19.50;1.00;;;;;;10373671;28;84053;-53
2022/07/11 10:45:10;;;;;;;;;;;19.90;1.00;;;;;;10375450;28;84807;-50
2022/07/11 10:50:20;;;;;;;;;;;20.30;1.00;;;;;;10394864;22;84722;-46
2022/07/11 10:55:40;;;;;;;;;;;20.50;99.90;;;;;;10413439;28;84143;-47
2022/07/11 11:00:40;;;;;;;;;;;20.80;99.90;;;;;;10414213;28;84835;-49
2022/07/11 11:05:47;;;;;;;;;;;21.00;63.90;;;;;;10412989;28;84845;-50
2022/07/11 11:10:48;;;;;;;;;;;20.90;99.90;;;;;;10411937;28;84309;-43
2022/07/11 11:15:54;;;;;;;;;;;20.80;95.90;;;;;;10410226;28;86840;-47
2022/07/11 11:20:57;;;;;;;;;;;21.00;1.00;;;;;;10410880;28;85118;-47
2022/07/11 11:26:06;;;;;;;;;;;20.90;65.40;;;;;;10412565;28;84863;-45
2022/07/11 11:31:07;;;;;;;;;;;21.00;33.10;;;;;;10411807;28;84069;-47
2022/07/11 11:36:12;;;;;;;;;;;20.70;63.60;;;;;;10412374;28;85132;-47
2022/07/11 11:41:26;;;;;;;;;;;20.60;99.90;;;;;;10411225;28;84178;-48
2022/07/11 11:46:27;;;;;;;;;;;21.10;1.00;;;;;;10411569;28;85080;-47
2022/07/11 11:51:29;;;;;;;;;;;21.90;1.00;;;;;;10427764;28;84205;-46
2022/07/11 11:56:32;;;;;;;;;;;21.70;1.00;;;;;;10453502;28;84869;-49
2022/07/11 12:01:37;;;;;;;;;;;21.50;1.00;;;;;;10452612;27;85021;-48
2022/07/11 12:06:40;;;;;;;;;;;21.40;1.00;;;;;;10452436;28;83963;-47
2022/07/11 12:11:41;;;;;;;;;;;21.60;1.00;;;;;;10451690;27;84095;-46
2022/07/11 12:16:49;;;;;;;;;;;21.90;1.00;;;;;;10452049;28;84427;-49
2022/07/11 12:21:51;;;;;;;;;;;22.10;1.00;;;;;;10433435;27;84748;-48
2022/07/11 12:26:52;;;;;;;;;;;22.50;1.00;;;;;;10451440;28;84921;-46
2022/07/11 12:31:54;;;;;;;;;;;22.50;52.70;;;;;;10451346;27;84223;-47
2022/07/11 12:37:10;;;;;;;;;;;22.30;99.90;;;;;;10451565;28;84905;-46
2022/07/11 12:42:30;;;;;;;;;;;21.70;99.90;;;;;;10451260;28;85006;-48
2022/07/11 12:47:31;;;;;;;;;;;21.40;1.00;;;;;;10451393;28;84166;-46
2022/07/11 12:52:38;;;;;;;;;;;21.40;1.00;;;;;;10450667;27;84234;-46
2022/07/11 12:57:39;;;;;;;;;;;21.70;1.00;;;;;;10451103;28;84918;-46
2022/07/11 13:02:39;;;;;;;;;;;21.60;1.00;;;;;;10449613;28;84235;-47
2022/07/11 13:13:00;;;;;;;;;;;21.70;1.00;;;;;;10450766;28;84911;-48
2022/07/11 13:18:01;;;;;;;;;;;22.10;99.90;;;;;;10450643;28;84339;-47
2022/07/11 13:23:02;;;;;;;;;;;21.90;99.90;;;;;;10450209;28;84859;-50
2022/07/11 13:28:02;;;;;;;;;;;21.90;1.00;;;;;;10450178;28;84923;-47
2022/07/11 13:33:03;;;;;;;;;;;21.70;1.00;;;;;;10449823;27;84830;-45
2022/07/11 13:38:03;;;;;;;;;;;21.90;99.90;;;;;;10430092;28;86985;-46
2022/07/11 13:43:04;;;;;;;;;;;22.10;99.90;;;;;;10448602;28;85001;-47
2022/07/11 13:48:05;;;;;;;;;;;22.10;99.90;;;;;;10449059;28;84355;-45
2022/07/11 13:53:05;;;;;;;;;;;22.10;99.90;;;;;;10448423;28;84235;-52
2022/07/11 13:58:23;;;;;;;;;;;22.10;99.90;;;;;;10449401;28;84002;-48
2022/07/11 14:03:24;;;;;;;;;;;22.20;99.90;;;;;;10448731;28;84021;-46
2022/07/11 14:08:25;;;;;;;;;;;22.10;99.90;;;;;;10450656;28;83992;-50
2022/07/11 14:13:25;;;;;;;;;;;22.10;99.90;;;;;;10450448;28;84140;-49
2022/07/11 14:18:26;;;;;;;;;;;22.30;99.90;;;;;;10450206;28;84040;-49
2022/07/11 14:23:26;;;;;;;;;;;22.60;99.90;;;;;;10431105;28;85076;-47
2022/07/11 14:28:27;;;;;;;;;;;22.80;99.90;;;;;;10449559;28;84782;-52
2022/07/11 14:33:27;;;;;;;;;;;23.00;1.00;;;;;;10450081;28;84884;-52
2022/07/11 14:38:28;;;;;;;;;;;22.70;1.00;;;;;;10450167;28;84874;-51
2022/07/11 14:43:29;;;;;;;;;;;22.50;1.00;;;;;;10448864;28;85068;-46
2022/07/11 14:48:30;;;;;;;;;;;22.30;99.90;;;;;;10450908;27;84462;-51
2022/07/11 14:53:31;;;;;;;;;;;22.60;1.00;;;;;;10437312;28;85354;-50
2022/07/11 14:58:32;;;;;;;;;;;22.70;1.00;;;;;;10455861;28;84986;-51
2022/07/11 15:03:39;;;;;;;;;;;22.90;1.00;;;;;;10437496;28;85945;-47
2022/07/11 15:13:59;;;;;;;;;;;22.80;1.00;;;;;;10454883;28;84784;-48
2022/07/11 15:19:00;;;;;;;;;;;23.10;1.00;;;;;;10455006;28;84162;-52
2022/07/11 15:24:01;;;;;;;;;;;23.20;1.00;;;;;;10455416;27;84230;-50
2022/07/11 15:29:02;;;;;;;;;;;23.10;1.00;;;;;;10453910;28;84352;-45
2022/07/11 15:34:02;;;;;;;;;;;23.10;1.00;;;;;;10455128;28;84173;-51
2022/07/11 15:39:03;;;;;;;;;;;23.10;1.00;;;;;;10455525;28;84010;-51
2022/07/11 15:44:03;;;;;;;;;;;22.80;1.00;;;;;;10455532;27;84909;-51
2022/07/11 15:49:04;;;;;;;;;;;22.40;90.00;;;;;;10453629;28;84297;-52
2022/07/11 15:54:05;;;;;;;;;;;22.50;99.90;;;;;;10446601;27;85243;-53
2022/07/11 15:59:05;;;;;;;;;;;22.70;94.30;;;;;;10434938;28;84138;-48
2022/07/11 16:04:06;;;;;;;;;;;22.80;1.00;;;;;;10430947;28;84398;-51
2022/07/11 16:09:06;;;;;;;;;;;22.60;99.90;;;;;;10433743;28;84226;-51
2022/07/11 16:14:07;;;;;;;;;;;22.70;99.90;;;;;;10429893;28;84050;-46
2022/07/11 16:19:07;;;;;;;;;;;22.60;99.90;;;;;;10430655;28;84084;-50
2022/07/11 16:24:08;;;;;;;;;;;22.40;99.90;;;;;;10428539;28;84150;-49
2022/07/11 16:29:11;;;;;;;;;;;22.10;99.90;;;;;;10432366;28;105814;-49
2022/07/11 16:34:12;;;;;;;;;;;22.00;1.00;;;;;;10428225;28;84180;-48
2022/07/11 16:44:32;;;;;;;;;;;22.20;1.00;;;;;;10438792;28;87171;-50
2022/07/11 16:49:32;;;;;;;;;;;22.40;1.00;;;;;;10415450;28;84962;-46
2022/07/11 16:54:33;;;;;;;;;;;22.40;99.90;;;;;;10492373;22;84220;-51
2022/07/11 16:59:34;;;;;;;;;;;22.40;99.90;;;;;;10488984;27;85681;-48
2022/07/11 17:04:34;;;;;;;;;;;22.30;1.00;;;;;;10484210;27;85235;-49
2022/07/11 17:09:35;;;;;;;;;;;22.20;99.90;;;;;;10466691;27;84942;-49
2022/07/11 17:14:35;;;;;;;;;;;22.20;99.90;;;;;;10468860;27;85312;-53
2022/07/11 17:19:36;;;;;;;;;;;22.10;1.00;;;;;;10468855;27;84181;-52
2022/07/11 17:24:37;;;;;;;;;;;22.10;1.00;;;;;;10466772;27;84222;-50
2022/07/11 17:29:37;;;;;;;;;;;22.10;1.00;;;;;;10449972;27;84766;-53
2022/07/11 17:34:38;;;;;;;;;;;22.10;1.00;;;;;;10469239;27;84054;-48
2022/07/11 17:39:38;;;;;;;;;;;22.20;1.00;;;;;;10467631;27;84930;-53
2022/07/11 17:44:39;;;;;;;;;;;22.10;1.00;;;;;;10468134;27;84411;-51
2022/07/11 17:49:39;;;;;;;;;;;22.00;1.00;;;;;;10449354;27;84897;-54
2022/07/11 17:54:40;;;;;;;;;;;22.00;1.00;;;;;;10468594;27;84238;-51
2022/07/11 17:59:41;;;;;;;;;;;21.90;1.00;;;;;;10467285;27;84242;-52
2022/07/11 18:04:41;;;;;;;;;;;22.00;1.00;;;;;;10469360;27;84262;-51
2022/07/11 18:09:42;;;;;;;;;;;21.90;1.00;;;;;;10444095;27;85024;-51
2022/07/11 18:14:43;;;;;;;;;;;21.90;1.00;;;;;;10463084;27;84257;-49
2022/07/11 18:19:44;;;;;;;;;;;21.80;1.00;;;;;;10446880;27;84210;-50
2022/07/11 18:24:44;;;;;;;;;;;21.80;1.00;;;;;;10474076;27;84954;-49
2022/07/11 18:29:45;;;;;;;;;;;21.90;1.00;;;;;;10446139;27;86863;-47
2022/07/11 18:34:46;;;;;;;;;;;21.80;1.00;;;;;;10454442;28;84012;-49
2022/07/11 18:45:08;;;;;;;;;;;21.50;1.00;;;;;;10474685;27;84962;-49
2022/07/11 18:50:09;;;;;;;;;;;21.40;1.00;;;;;;10468725;27;84004;-49
2022/07/11 18:55:10;;;;;;;;;;;21.20;24.50;;;;;;10471824;27;84883;-50
2022/07/11 19:00:11;;;;;;;;;;;21.10;99.90;;;;;;10471941;27;84867;-49
2022/07/11 19:05:12;;;;;;;;;;;21.00;99.90;;;;;;10440545;27;84339;-51
2022/07/11 19:10:13;;;;;;;;;;;20.90;99.90;;;;;;10449403;27;84743;-50
2022/07/11 19:15:13;;;;;;;;;;;20.80;99.90;;;;;;10470969;27;84153;-48
2022/07/11 19:20:14;;;;;;;;;;;20.70;1.00;;;;;;10434756;27;84667;-51
2022/07/11 19:25:15;;;;;;;;;;;20.70;1.00;;;;;;10468256;27;84719;-47
2022/07/11 19:30:17;;;;;;;;;;;20.50;1.00;;;;;;10446878;28;84990;-47
2022/07/11 19:35:18;;;;;;;;;;;20.40;1.00;;;;;;10440203;27;84132;-51
2022/07/11 19:40:18;;;;;;;;;;;20.30;1.00;;;;;;10441340;28;84252;-49
2022/07/11 19:45:19;;;;;;;;;;;20.20;1.00;;;;;;10410458;28;84742;-50
2022/07/11 19:50:20;;;;;;;;;;;20.10;1.00;;;;;;10431185;28;85100;-53
2022/07/11 20:00:40;;;;;;;;;;;20.00;1.00;;;;;;10446221;27;84952;-44
2022/07/11 20:05:40;;;;;;;;;;;19.80;1.00;;;;;;10442452;27;84872;-49
2022/07/11 20:10:41;;;;;;;;;;;19.80;1.00;;;;;;10446184;28;84155;-51
2022/07/11 20:15:42;;;;;;;;;;;19.70;1.00;;;;;;10448409;28;84897;-50
2022/07/11 20:20:42;;;;;;;;;;;19.60;1.00;;;;;;10450978;28;84267;-51
2022/07/11 20:25:43;;;;;;;;;;;19.50;1.00;;;;;;10452280;28;85309;-49
2022/07/11 20:30:43;;;;;;;;;;;19.40;1.00;;;;;;10452284;28;84932;-52
2022/07/11 20:35:44;;;;;;;;;;;19.20;1.00;;;;;;10452024;28;84299;-52
2022/07/11 20:40:44;;;;;;;;;;;19.10;1.00;;;;;;10453069;28;84943;-48
2022/07/11 20:45:45;;;;;;;;;;;19.00;1.00;;;;;;10426418;28;86956;-45
2022/07/11 20:50:46;;;;;;;;;;;18.90;1.00;;;;;;10451250;28;84727;-48
2022/07/11 20:55:46;;;;;;;;;;;18.80;1.00;;;;;;10449771;28;85812;-49
2022/07/11 21:00:47;;;;;;;;;;;18.60;1.00;;;;;;10443023;28;84371;-49
2022/07/11 21:05:48;;;;;;;;;;;18.60;1.00;;;;;;10462656;28;84178;-52
2022/07/11 21:10:48;;;;;;;;;;;18.50;1.00;;;;;;10447868;28;84299;-52
2022/07/11 21:15:49;;;;;;;;;;;18.40;1.00;;;;;;10438229;28;84840;-49
2022/07/11 21:20:49;;;;;;;;;;;18.30;1.00;;;;;;10422266;28;85119;-47
2022/07/11 21:25:50;;;;;;;;;;;18.20;1.00;;;;;;10431826;28;86244;-46
2022/07/11 21:30:50;;;;;;;;;;;18.20;21.10;;;;;;10435605;28;84814;-47
2022/07/11 21:35:51;;;;;;;;;;;18.10;43.10;;;;;;10409011;28;84821;-54
2022/07/11 21:40:51;;;;;;;;;;;18.00;69.00;;;;;;10422787;28;84308;-48
2022/07/11 21:45:52;;;;;;;;;;;18.00;75.50;;;;;;10450861;28;84103;-47
2022/07/11 21:50:53;;;;;;;;;;;17.90;99.90;;;;;;10434631;28;84144;-47
2022/07/11 21:55:53;;;;;;;;;;;17.80;91.00;;;;;;10407954;28;84793;-47
2022/07/11 22:00:54;;;;;;;;;;;17.70;99.90;;;;;;10427147;28;84950;-50
2022/07/11 22:05:54;;;;;;;;;;;17.70;99.90;;;;;;10455976;28;84874;-50
2022/07/11 22:10:55;;;;;;;;;;;17.60;99.90;;;;;;10440599;28;84478;-48
2022/07/11 22:15:56;;;;;;;;;;;17.50;99.90;;;;;;10414940;28;85355;-48
2022/07/11 22:20:56;;;;;;;;;;;17.40;99.90;;;;;;10431130;28;84163;-52
2022/07/11 22:25:57;;;;;;;;;;;17.40;99.90;;;;;;10457572;28;84081;-50
2022/07/11 22:30:58;;;;;;;;;;;17.30;99.90;;;;;;10441800;28;84036;-54
2022/07/11 22:35:58;;;;;;;;;;;17.30;99.90;;;;;;10414819;28;84957;-54
2022/07/11 22:40:59;;;;;;;;;;;17.20;99.90;;;;;;10428052;28;84134;-52
2022/07/11 22:45:59;;;;;;;;;;;17.10;99.90;;;;;;10454356;28;84063;-50
2022/07/11 22:51:00;;;;;;;;;;;17.10;99.90;;;;;;10473978;22;85399;-47
2022/07/11 22:56:00;;;;;;;;;;;17.00;99.90;;;;;;10496279;27;84959;-46
2022/07/11 23:01:01;;;;;;;;;;;17.00;99.90;;;;;;10499074;27;85090;-47
2022/07/11 23:06:01;;;;;;;;;;;16.90;99.90;;;;;;10519784;27;84798;-47
2022/07/11 23:11:02;;;;;;;;;;;16.90;99.90;;;;;;10534975;27;84972;-47
2022/07/11 23:16:03;;;;;;;;;;;16.90;99.90;;;;;;10518266;27;87301;-47
2022/07/11 23:21:03;;;;;;;;;;;16.80;99.90;;;;;;10521851;27;85270;-45
2022/07/11 23:26:04;;;;;;;;;;;16.80;99.90;;;;;;10495042;27;84993;-45
2022/07/11 23:31:04;;;;;;;;;;;16.70;99.90;;;;;;10495870;27;84143;-49
2022/07/11 23:36:05;;;;;;;;;;;16.70;99.90;;;;;;10494709;27;84979;-49
2022/07/11 23:41:06;;;;;;;;;;;16.70;99.90;;;;;;10536196;27;84822;-48
2022/07/11 23:46:07;;;;;;;;;;;16.70;99.90;;;;;;10535731;27;84256;-47
2022/07/11 23:51:07;;;;;;;;;;;16.70;99.90;;;;;;10494417;27;84164;-46
2022/07/11 23:56:08;;;;;;;;;;;16.70;99.90;;;;;;10494387;27;84844;-47
